Aviation Digital Data Service (ADDS)

Output produced by TAFs form (2305 UTC 27 July 2016)
found at http://aviationweather.gov/adds/tafs/
 
KLND 271730Z 2718/2818 VRB06KT P6SM FEW120 
     FM272000 03007KT P6SM FEW120 
     FM280200 31008KT P6SM SCT120 
     FM280900 VRB06KT P6SM VCSH BKN110 
     FM281400 04006KT P6SM FEW110